Time;durP1;ratioP1;P1;durP2;ratioP2;P2;SDS_P1;SDS_P2;PMS_P1;PMS_P2;Temp;Humidity;BMP_temperature;BMP_pressure;BME280_temperature;BME280_humidity;BME280_pressure;Samples;Min_cycle;Max_cycle;Signal;HPM_P1;HPM_P2
2021/11/18 00:01:25;;;;;;;5.57;4.63;;;6.90;80.30;;;;;;5057032;28;20136;-68
2021/11/18 00:03:53;;;;;;;6.80;4.90;;;6.90;80.40;;;;;;5056931;28;20148;-68
2021/11/18 00:06:18;;;;;;;8.27;4.82;;;6.90;80.50;;;;;;5058311;28;20029;-68
2021/11/18 00:08:45;;;;;;;6.85;5.05;;;6.90;81.30;;;;;;5055208;28;20052;-67
2021/11/18 00:11:13;;;;;;;6.80;4.38;;;6.90;80.60;;;;;;5051694;28;20511;-68
2021/11/18 00:13:45;;;;;;;5.85;4.80;;;6.90;80.60;;;;;;5054006;28;20028;-67
2021/11/18 00:16:11;;;;;;;5.93;4.80;;;6.90;80.70;;;;;;5058471;28;20040;-68
2021/11/18 00:18:38;;;;;;;5.93;4.63;;;6.90;80.70;;;;;;5058580;28;20070;-68
2021/11/18 00:21:11;;;;;;;5.25;4.30;;;6.90;80.70;;;;;;5055381;28;20140;-68
2021/11/18 00:23:40;;;;;;;6.20;4.80;;;7.00;80.80;;;;;;5055850;28;20047;-67
2021/11/18 00:26:07;;;;;;;6.35;4.88;;;7.00;80.80;;;;;;5059938;28;20644;-68
2021/11/18 00:28:33;;;;;;;7.53;4.60;;;7.00;80.80;;;;;;5057490;28;20618;-68
2021/11/18 00:31:00;;;;;;;6.72;5.13;;;7.10;80.80;;;;;;5059145;28;20032;-67
2021/11/18 00:33:26;;;;;;;7.25;4.68;;;7.10;80.70;;;;;;5057115;28;20040;-66
2021/11/18 00:35:52;;;;;;;6.90;4.68;;;7.10;80.60;;;;;;5052856;28;20032;-67
2021/11/18 00:38:19;;;;;;;6.25;4.78;;;7.10;80.40;;;;;;5053253;28;20039;-68
2021/11/18 00:40:47;;;;;;;6.00;4.63;;;7.20;80.30;;;;;;5056749;28;20051;-67
2021/11/18 00:43:14;;;;;;;6.47;4.75;;;7.20;80.10;;;;;;5058330;28;20454;-68
2021/11/18 00:45:40;;;;;;;5.88;4.40;;;7.20;80.10;;;;;;5055676;28;20033;-68
2021/11/18 00:48:07;;;;;;;6.72;4.47;;;7.20;80.00;;;;;;5057965;28;20690;-68
2021/11/18 00:50:42;;;;;;;5.15;4.18;;;7.20;79.90;;;;;;5055565;28;20037;-68
2021/11/18 00:53:08;;;;;;;6.97;4.47;;;7.20;79.90;;;;;;5056836;28;20104;-67
2021/11/18 00:55:35;;;;;;;5.55;4.50;;;7.20;79.90;;;;;;5056243;28;20119;-68
2021/11/18 00:58:00;;;;;;;6.38;4.93;;;7.20;80.80;;;;;;5058069;28;20040;-68
2021/11/18 01:00:30;;;;;;;7.43;4.22;;;7.30;80.00;;;;;;5056511;28;20037;-68
2021/11/18 01:02:58;;;;;;;5.22;4.28;;;7.20;80.00;;;;;;5057362;28;20040;-68
2021/11/18 01:05:25;;;;;;;7.30;5.05;;;7.30;80.00;;;;;;5056510;28;20447;-66
2021/11/18 01:07:58;;;;;;;6.78;4.80;;;7.30;79.80;;;;;;5055747;28;20086;-67
2021/11/18 01:10:30;;;;;;;5.88;4.38;;;7.30;79.70;;;;;;5054944;28;20055;-68
2021/11/18 01:12:56;;;;;;;6.00;4.78;;;7.30;79.70;;;;;;5055378;28;20036;-68
2021/11/18 01:15:26;;;;;;;10.40;5.18;;;7.30;79.60;;;;;;5056899;28;20455;-67
2021/11/18 01:17:52;;;;;;;6.70;4.75;;;7.30;79.60;;;;;;5056737;28;20412;-68
2021/11/18 01:20:19;;;;;;;6.30;4.70;;;7.30;79.50;;;;;;5056468;28;20029;-68
2021/11/18 01:22:45;;;;;;;6.97;4.22;;;7.30;79.40;;;;;;5056877;28;20060;-68
2021/11/18 01:25:13;;;;;;;8.15;4.88;;;7.30;79.40;;;;;;5057177;28;20108;-68
2021/11/18 01:27:39;;;;;;;6.15;4.85;;;7.30;79.50;;;;;;5054046;28;20052;-67
2021/11/18 01:30:14;;;;;;;6.28;4.70;;;7.30;79.50;;;;;;5055987;28;20036;-67
2021/11/18 01:32:41;;;;;;;6.38;4.47;;;7.30;79.60;;;;;;5055964;28;20122;-67
2021/11/18 01:35:07;;;;;;;6.70;4.80;;;7.30;79.60;;;;;;5056268;28;20606;-68
2021/11/18 01:37:33;;;;;;;7.03;5.15;;;7.30;79.60;;;;;;5055195;28;20040;-67
2021/11/18 01:39:59;;;;;;;5.97;4.70;;;7.30;79.60;;;;;;5055874;28;20770;-65
2021/11/18 01:42:25;;;;;;;7.57;4.82;;;7.30;79.70;;;;;;5053575;28;20041;-66
2021/11/18 01:44:52;;;;;;;7.45;4.82;;;7.30;79.80;;;;;;5056879;28;20675;-67
2021/11/18 01:47:18;;;;;;;5.90;4.78;;;7.40;79.80;;;;;;5055602;28;20033;-68
2021/11/18 01:49:46;;;;;;;5.63;4.60;;;7.40;79.70;;;;;;5055459;28;20530;-67
2021/11/18 01:52:16;;;;;;;5.85;4.78;;;7.40;79.60;;;;;;5051335;28;20041;-68
2021/11/18 01:54:44;;;;;;;6.30;4.93;;;7.30;79.50;;;;;;5053136;28;20503;-67
2021/11/18 01:57:15;;;;;;;6.40;4.85;;;7.30;79.50;;;;;;5054221;28;20032;-68
2021/11/18 01:59:44;;;;;;;7.35;4.78;;;7.30;79.60;;;;;;5056116;28;20451;-68
2021/11/18 02:02:11;;;;;;;7.03;4.88;;;7.30;79.70;;;;;;5059110;28;20040;-68
2021/11/18 02:04:57;;;;;;;8.27;5.00;;;7.30;79.80;;;;;;5056308;28;20403;-67
2021/11/18 02:07:22;;;;;;;6.82;4.95;;;7.20;79.70;;;;;;5053889;28;20183;-68
2021/11/18 02:09:50;;;;;;;7.65;5.60;;;7.30;79.80;;;;;;5055782;28;20040;-68
2021/11/18 02:12:17;;;;;;;7.97;5.47;;;7.20;79.70;;;;;;5054934;28;20032;-67
2021/11/18 02:14:43;;;;;;;7.90;5.20;;;7.20;79.80;;;;;;5053512;28;20025;-68
2021/11/18 02:17:13;;;;;;;8.35;5.65;;;7.20;79.80;;;;;;5053864;28;20086;-68
2021/11/18 02:19:42;;;;;;;7.03;5.22;;;7.20;79.80;;;;;;5055702;28;20088;-67
2021/11/18 02:22:08;;;;;;;8.23;5.35;;;7.20;79.80;;;;;;5051436;28;20069;-68
2021/11/18 02:24:41;;;;;;;9.10;5.70;;;7.20;79.80;;;;;;5051352;28;20116;-67
2021/11/18 02:27:08;;;;;;;7.88;5.53;;;7.20;79.90;;;;;;5055897;28;20033;-68
2021/11/18 02:29:34;;;;;;;6.88;5.30;;;7.20;80.00;;;;;;5057919;28;20033;-68
2021/11/18 02:32:06;;;;;;;8.48;5.80;;;7.20;80.00;;;;;;5059821;28;20041;-67
2021/11/18 02:34:40;;;;;;;8.00;5.72;;;7.20;80.00;;;;;;5060147;28;20042;-68
2021/11/18 02:37:06;;;;;;;10.05;5.50;;;7.20;79.80;;;;;;5058800;28;20028;-67
2021/11/18 02:39:32;;;;;;;9.30;5.72;;;7.30;79.80;;;;;;5057100;28;20041;-68
2021/11/18 02:41:58;;;;;;;7.57;5.20;;;7.30;79.80;;;;;;5061830;28;20064;-68
2021/11/18 02:44:23;;;;;;;8.93;5.70;;;7.30;79.80;;;;;;5059695;28;20538;-68
2021/11/18 02:46:49;;;;;;;8.13;6.20;;;7.30;79.70;;;;;;5059189;28;20124;-68
2021/11/18 02:49:14;;;;;;;7.75;5.35;;;7.30;79.50;;;;;;5059698;28;20032;-67
2021/11/18 02:51:40;;;;;;;9.23;5.90;;;7.30;79.40;;;;;;5059053;28;20512;-68
2021/11/18 02:54:06;;;;;;;8.77;5.90;;;7.30;79.40;;;;;;5060107;28;20041;-68
2021/11/18 02:56:32;;;;;;;8.88;5.95;;;7.30;79.30;;;;;;5058696;28;20629;-67
2021/11/18 02:58:59;;;;;;;7.55;5.43;;;7.20;79.40;;;;;;5055591;28;20305;-68
2021/11/18 03:01:35;;;;;;;9.23;5.93;;;7.30;79.40;;;;;;5055266;28;20577;-68
2021/11/18 03:04:01;;;;;;;7.28;5.30;;;7.30;79.50;;;;;;5060575;28;20078;-68
2021/11/18 03:06:28;;;;;;;8.50;5.88;;;7.30;79.60;;;;;;5058043;28;20033;-68
2021/11/18 03:08:53;;;;;;;7.70;5.45;;;7.30;79.70;;;;;;5057209;28;20035;-68
2021/11/18 03:11:21;;;;;;;7.85;5.57;;;7.30;79.70;;;;;;5057919;28;20033;-68
2021/11/18 03:13:47;;;;;;;8.50;5.55;;;7.30;79.70;;;;;;5059190;28;20028;-68
2021/11/18 03:16:14;;;;;;;8.77;5.63;;;7.30;79.70;;;;;;5057740;28;20056;-68
2021/11/18 03:18:40;;;;;;;8.48;6.03;;;7.30;79.70;;;;;;5056409;28;20048;-67
2021/11/18 03:21:10;;;;;;;8.13;5.43;;;7.30;79.60;;;;;;5057781;28;20044;-68
2021/11/18 03:23:36;;;;;;;8.70;6.13;;;7.40;79.60;;;;;;5059608;28;20067;-68
2021/11/18 03:26:03;;;;;;;7.97;5.47;;;7.40;79.60;;;;;;5058244;28;20041;-67
2021/11/18 03:28:33;;;;;;;7.50;5.70;;;7.40;79.60;;;;;;5058272;28;20036;-68
2021/11/18 03:31:01;;;;;;;8.05;6.20;;;7.40;79.60;;;;;;5059569;28;20086;-67
2021/11/18 03:33:31;;;;;;;7.18;5.45;;;7.40;79.60;;;;;;5058423;28;20408;-68
2021/11/18 03:35:57;;;;;;;8.27;6.05;;;7.40;79.40;;;;;;5059339;28;20041;-68
2021/11/18 03:38:26;;;;;;;8.52;5.65;;;7.40;79.40;;;;;;5058279;28;20104;-68
2021/11/18 03:40:52;;;;;;;9.73;5.90;;;7.50;79.30;;;;;;5037738;28;20033;-68
2021/11/18 03:43:22;;;;;;;10.15;5.60;;;7.50;79.30;;;;;;5035457;28;20037;-68
2021/11/18 03:45:49;;;;;;;9.25;5.82;;;7.50;79.20;;;;;;5037225;28;20040;-67
2021/11/18 03:48:19;;;;;;;7.97;5.80;;;7.50;79.20;;;;;;5038114;28;20029;-67
2021/11/18 03:50:46;;;;;;;8.35;5.90;;;7.50;79.10;;;;;;5035622;28;20507;-67
2021/11/18 03:53:13;;;;;;;9.00;5.85;;;7.50;79.10;;;;;;5036835;28;20041;-68
2021/11/18 03:55:39;;;;;;;7.50;5.68;;;7.50;79.10;;;;;;5035095;28;20025;-67
2021/11/18 03:58:06;;;;;;;8.65;6.03;;;7.50;78.90;;;;;;5038236;28;20119;-67
2021/11/18 04:00:36;;;;;;;8.63;5.82;;;7.50;78.90;;;;;;5036523;28;20040;-67
2021/11/18 04:03:02;;;;;;;7.13;5.50;;;7.50;78.80;;;;;;5038014;28;20041;-68
2021/11/18 04:05:29;;;;;;;6.47;5.53;;;7.50;78.90;;;;;;5036910;28;20087;-67
2021/11/18 04:07:55;;;;;;;8.23;5.70;;;7.50;79.00;;;;;;5038552;28;20512;-68
2021/11/18 04:10:24;;;;;;;7.25;5.38;;;7.50;79.10;;;;;;5038053;28;20051;-67
2021/11/18 04:12:50;;;;;;;9.45;5.70;;;7.50;79.90;;;;;;5034674;28;20038;-68
2021/11/18 04:15:17;;;;;;;8.45;5.30;;;7.50;79.10;;;;;;5037742;28;20037;-67
2021/11/18 04:17:43;;;;;;;7.25;5.57;;;7.50;79.00;;;;;;5036597;28;20061;-67
2021/11/18 04:20:10;;;;;;;8.77;5.85;;;7.50;79.10;;;;;;5038852;28;20067;-67
2021/11/18 04:22:37;;;;;;;7.85;5.63;;;7.60;79.10;;;;;;5039474;28;20048;-68
2021/11/18 04:25:05;;;;;;;7.53;5.57;;;7.60;79.10;;;;;;5037126;28;20524;-67
2021/11/18 04:27:31;;;;;;;7.55;5.53;;;7.60;79.10;;;;;;5037062;28;20033;-68
2021/11/18 04:29:57;;;;;;;7.97;5.75;;;7.60;79.10;;;;;;5037356;28;20114;-68
2021/11/18 04:32:26;;;;;;;7.95;5.85;;;7.60;79.10;;;;;;5036256;28;20048;-67
2021/11/18 04:34:52;;;;;;;7.82;6.00;;;7.60;79.00;;;;;;5034313;28;20033;-68
2021/11/18 04:37:18;;;;;;;7.30;5.53;;;7.60;79.00;;;;;;5030858;28;20037;-68
2021/11/18 04:39:44;;;;;;;8.05;5.93;;;7.50;79.00;;;;;;5035002;28;22134;-67
2021/11/18 04:42:11;;;;;;;10.07;5.88;;;7.60;79.10;;;;;;5035069;28;20029;-68
2021/11/18 04:44:37;;;;;;;8.02;5.65;;;7.60;79.10;;;;;;5036418;28;20025;-67
2021/11/18 04:47:07;;;;;;;9.38;5.65;;;7.60;79.00;;;;;;5035479;28;20563;-68
2021/11/18 04:49:33;;;;;;;8.10;5.70;;;7.60;79.10;;;;;;5033430;28;20033;-67
2021/11/18 04:51:59;;;;;;;7.32;5.68;;;7.60;79.10;;;;;;5032652;28;20029;-68
2021/11/18 04:54:25;;;;;;;8.27;5.70;;;7.60;79.10;;;;;;5032051;28;20397;-68
2021/11/18 04:56:51;;;;;;;10.18;6.13;;;7.60;80.00;;;;;;5033731;28;20045;-67
2021/11/18 04:59:16;;;;;;;83.28;40.38;;;7.60;79.10;;;;;;5037081;28;20048;-68
2021/11/18 05:01:42;;;;;;;34.45;19.00;;;7.60;79.10;;;;;;5036347;28;20060;-68
2021/11/18 05:04:08;;;;;;;14.50;9.20;;;7.60;79.10;;;;;;5033145;28;20033;-68
2021/11/18 05:06:35;;;;;;;13.07;7.07;;;7.60;79.80;;;;;;5032214;28;20045;-67
2021/11/18 05:09:02;;;;;;;9.43;6.65;;;7.60;79.00;;;;;;5034329;28;20036;-67
2021/11/18 05:11:27;;;;;;;8.13;5.90;;;7.60;78.90;;;;;;5040702;28;20037;-67
2021/11/18 05:13:53;;;;;;;9.65;6.40;;;7.60;79.00;;;;;;5057169;28;20432;-67
2021/11/18 05:16:19;;;;;;;8.68;6.03;;;7.60;79.10;;;;;;5057053;28;20459;-68
2021/11/18 05:18:46;;;;;;;10.82;6.15;;;7.60;79.10;;;;;;5058053;28;20116;-67
2021/11/18 05:21:13;;;;;;;10.70;6.57;;;7.60;79.10;;;;;;5056009;28;20128;-67
2021/11/18 05:23:40;;;;;;;9.13;6.78;;;7.60;79.10;;;;;;5056846;28;20041;-67
2021/11/18 05:26:07;;;;;;;8.88;5.85;;;7.60;79.10;;;;;;5056377;28;20042;-68
2021/11/18 05:28:33;;;;;;;14.15;6.93;;;7.60;79.10;;;;;;5056239;28;20030;-67
2021/11/18 05:30:59;;;;;;;11.48;6.65;;;7.60;79.10;;;;;;5053275;28;20033;-68
2021/11/18 05:33:26;;;;;;;11.43;6.40;;;7.60;79.00;;;;;;5055726;28;20039;-67
2021/11/18 05:35:53;;;;;;;7.55;5.80;;;7.60;78.90;;;;;;5056636;28;20060;-68
2021/11/18 05:38:20;;;;;;;7.15;5.47;;;7.60;78.90;;;;;;5056981;28;20024;-67
2021/11/18 05:40:46;;;;;;;7.93;5.60;;;7.50;79.00;;;;;;5055411;28;20051;-67
2021/11/18 05:43:13;;;;;;;7.70;5.85;;;7.50;79.10;;;;;;5056411;28;20369;-67
2021/11/18 05:45:39;;;;;;;8.00;5.75;;;7.50;79.20;;;;;;5056393;28;20126;-67
2021/11/18 05:48:06;;;;;;;8.10;6.03;;;7.50;79.10;;;;;;5055777;28;20039;-67
2021/11/18 05:50:34;;;;;;;9.18;5.90;;;7.40;79.10;;;;;;5056257;28;20059;-67
2021/11/18 05:52:59;;;;;;;9.88;5.95;;;7.50;79.20;;;;;;5057154;28;20165;-67
2021/11/18 05:55:28;;;;;;;8.07;5.88;;;7.40;79.10;;;;;;5056945;28;20064;-67
2021/11/18 05:57:54;;;;;;;7.20;5.50;;;7.40;79.00;;;;;;5056253;28;20128;-67
2021/11/18 06:00:24;;;;;;;11.00;5.78;;;7.40;79.10;;;;;;5056761;28;20127;-67
2021/11/18 06:02:51;;;;;;;8.02;5.80;;;7.40;79.00;;;;;;5054595;28;20036;-68
2021/11/18 06:05:19;;;;;;;9.48;6.40;;;7.30;79.00;;;;;;5057288;28;20620;-68
2021/11/18 06:07:45;;;;;;;9.10;6.22;;;7.30;79.10;;;;;;5056359;28;20029;-68
2021/11/18 06:10:13;;;;;;;9.32;5.93;;;7.20;79.10;;;;;;5056645;28;20033;-68
2021/11/18 06:12:39;;;;;;;13.38;6.55;;;7.30;79.20;;;;;;5054058;28;20043;-68
2021/11/18 06:15:05;;;;;;;10.35;6.57;;;7.30;79.30;;;;;;5054678;28;20025;-68
2021/11/18 06:17:31;;;;;;;8.20;6.07;;;7.30;79.30;;;;;;5055700;28;20569;-66
2021/11/18 06:19:57;;;;;;;14.40;7.00;;;7.30;79.30;;;;;;5057176;28;20072;-67
2021/11/18 06:22:27;;;;;;;13.35;8.07;;;7.30;79.40;;;;;;5057628;28;20116;-68
2021/11/18 06:24:54;;;;;;;12.52;8.15;;;7.30;79.30;;;;;;5057329;28;20032;-68
2021/11/18 06:27:23;;;;;;;11.40;7.82;;;7.30;79.40;;;;;;5057339;28;20525;-68
2021/11/18 06:29:49;;;;;;;9.70;7.07;;;7.20;79.30;;;;;;5057596;28;20041;-68
2021/11/18 06:32:15;;;;;;;10.85;7.07;;;7.20;79.30;;;;;;5056945;28;20029;-68
2021/11/18 06:34:42;;;;;;;12.60;6.95;;;7.20;79.30;;;;;;5057456;28;20113;-68
2021/11/18 06:37:09;;;;;;;11.20;6.75;;;7.20;79.30;;;;;;5057119;28;20039;-68
2021/11/18 06:39:38;;;;;;;14.30;7.25;;;7.20;79.40;;;;;;5056540;28;20029;-68
2021/11/18 06:42:05;;;;;;;14.55;6.93;;;7.20;79.40;;;;;;5057333;28;20032;-66
2021/11/18 06:44:31;;;;;;;9.27;7.00;;;7.20;79.40;;;;;;5055854;28;20037;-67
2021/11/18 06:46:57;;;;;;;13.57;6.47;;;7.20;79.40;;;;;;5056812;28;20032;-68
2021/11/18 06:49:23;;;;;;;13.85;6.70;;;7.10;79.60;;;;;;5056525;28;20083;-68
2021/11/18 06:51:50;;;;;;;10.27;6.78;;;7.10;79.60;;;;;;5056691;28;20499;-67
2021/11/18 06:54:17;;;;;;;13.10;6.88;;;7.10;79.70;;;;;;5057143;28;20044;-68
2021/11/18 06:56:43;;;;;;;12.15;6.80;;;7.10;79.80;;;;;;5055561;28;20508;-68
2021/11/18 06:59:10;;;;;;;9.45;6.43;;;7.10;79.80;;;;;;5056723;28;20033;-67
2021/11/18 07:01:36;;;;;;;11.63;6.05;;;7.10;79.80;;;;;;5057413;28;20058;-67
2021/11/18 07:04:06;;;;;;;14.45;6.93;;;7.10;79.90;;;;;;5056769;28;20033;-68
2021/11/18 07:06:34;;;;;;;10.23;6.47;;;7.10;79.90;;;;;;5055546;28;20111;-67
2021/11/18 07:09:00;;;;;;;15.65;7.05;;;7.10;79.90;;;;;;5057065;28;20035;-67
2021/11/18 07:11:26;;;;;;;18.25;8.07;;;7.10;79.90;;;;;;5054130;28;20523;-67
2021/11/18 07:13:52;;;;;;;18.45;8.50;;;7.10;80.00;;;;;;5056588;28;20124;-67
2021/11/18 07:16:20;;;;;;;17.50;8.68;;;7.20;80.00;;;;;;5060794;28;20048;-67
2021/11/18 07:18:46;;;;;;;16.45;7.70;;;7.10;80.00;;;;;;5058224;28;20072;-67
2021/11/18 07:21:12;;;;;;;11.60;7.65;;;7.10;80.00;;;;;;5059332;28;20029;-67
2021/11/18 07:23:39;;;;;;;15.68;7.80;;;7.10;80.10;;;;;;5059069;28;20033;-66
2021/11/18 07:26:06;;;;;;;17.00;7.90;;;7.20;80.20;;;;;;5059003;28;20036;-68
2021/11/18 07:28:35;;;;;;;18.15;8.10;;;7.10;80.20;;;;;;5058578;28;20033;-68
2021/11/18 07:31:01;;;;;;;20.50;9.40;;;7.10;80.20;;;;;;5058619;28;20028;-66
2021/11/18 07:33:29;;;;;;;19.60;8.93;;;7.10;80.30;;;;;;5059538;28;20040;-67
2021/11/18 07:35:55;;;;;;;15.60;8.73;;;7.10;80.30;;;;;;5058668;28;20631;-67
2021/11/18 07:38:23;;;;;;;12.38;7.90;;;7.10;80.30;;;;;;5057798;28;20041;-67
2021/11/18 07:40:49;;;;;;;13.68;7.90;;;7.10;81.00;;;;;;5058816;28;20036;-68
2021/11/18 07:43:19;;;;;;;12.48;7.85;;;7.20;80.30;;;;;;5058726;28;20575;-68
2021/11/18 07:45:49;;;;;;;15.52;8.15;;;7.20;80.30;;;;;;5058961;28;20082;-68
2021/11/18 07:48:15;;;;;;;14.45;7.93;;;7.20;80.40;;;;;;5058958;28;20032;-67
2021/11/18 07:50:42;;;;;;;13.80;7.43;;;7.20;80.40;;;;;;5057555;28;20317;-67
2021/11/18 07:53:07;;;;;;;11.65;7.55;;;7.20;80.50;;;;;;5058884;28;20045;-68
2021/11/18 07:55:33;;;;;;;15.05;7.28;;;7.30;80.40;;;;;;5057537;28;20048;-67
2021/11/18 07:57:59;;;;;;;13.65;7.32;;;7.30;80.30;;;;;;5058806;28;20408;-67
2021/11/18 08:00:26;;;;;;;9.80;6.72;;;7.30;80.30;;;;;;5057775;28;20047;-67
2021/11/18 08:02:52;;;;;;;13.55;7.07;;;7.30;80.30;;;;;;5059047;28;20504;-67
2021/11/18 08:05:18;;;;;;;12.30;7.20;;;7.30;80.30;;;;;;5058943;28;20039;-66
2021/11/18 08:07:44;;;;;;;10.55;7.70;;;7.40;80.30;;;;;;5058394;28;20431;-68
2021/11/18 08:10:12;;;;;;;12.70;6.93;;;7.40;80.20;;;;;;5058068;28;20507;-67
2021/11/18 08:12:38;;;;;;;12.02;7.28;;;7.40;80.20;;;;;;5057568;28;20044;-68
2021/11/18 08:15:06;;;;;;;10.50;7.43;;;7.40;80.30;;;;;;5058825;28;20033;-68
2021/11/18 08:17:31;;;;;;;12.40;7.47;;;7.40;81.10;;;;;;5058814;28;20035;-66
2021/11/18 08:19:57;;;;;;;12.20;7.28;;;7.40;80.10;;;;;;5058523;28;20578;-67
2021/11/18 08:22:23;;;;;;;12.57;7.07;;;7.50;80.20;;;;;;5062251;28;20033;-68
2021/11/18 08:24:48;;;;;;;8.50;6.38;;;7.50;80.10;;;;;;5057761;28;20518;-67
2021/11/18 08:27:14;;;;;;;10.07;6.63;;;7.60;80.10;;;;;;5058517;28;20025;-67
2021/11/18 08:29:39;;;;;;;13.35;6.97;;;7.50;79.90;;;;;;5058732;28;20075;-67
2021/11/18 08:32:06;;;;;;;13.05;7.03;;;7.60;80.00;;;;;;5059211;28;20037;-68
2021/11/18 08:34:32;;;;;;;10.80;7.13;;;7.60;79.90;;;;;;5057508;28;20029;-68
2021/11/18 08:36:59;;;;;;;9.13;6.78;;;7.60;79.90;;;;;;5059042;28;20102;-67
2021/11/18 08:39:26;;;;;;;12.25;7.13;;;7.60;79.90;;;;;;5056584;28;20059;-68
2021/11/18 08:41:55;;;;;;;11.15;5.82;;;7.70;80.00;;;;;;5058592;28;20024;-67
2021/11/18 08:44:21;;;;;;;12.40;7.10;;;7.70;80.00;;;;;;5057403;28;20458;-67
2021/11/18 08:46:48;;;;;;;8.80;6.55;;;7.70;80.00;;;;;;5057627;28;20490;-68
2021/11/18 08:49:15;;;;;;;10.25;6.45;;;7.80;80.00;;;;;;5057513;28;20029;-67
2021/11/18 08:51:42;;;;;;;10.45;6.50;;;7.80;80.00;;;;;;5058342;28;20029;-67
2021/11/18 08:54:11;;;;;;;8.77;6.63;;;7.80;80.00;;;;;;5058369;28;20404;-68
2021/11/18 08:56:37;;;;;;;12.10;6.57;;;7.80;80.10;;;;;;5056721;28;20061;-68
2021/11/18 08:59:05;;;;;;;12.32;6.40;;;7.80;80.10;;;;;;5057460;28;20105;-67
2021/11/18 09:01:39;;;;;;;10.23;7.20;;;7.90;80.10;;;;;;5055981;28;20041;-67
2021/11/18 09:04:09;;;;;;;17.33;7.40;;;7.90;80.20;;;;;;5055694;28;20103;-68
2021/11/18 09:06:34;;;;;;;14.43;8.10;;;8.00;80.30;;;;;;5057447;28;20116;-67
2021/11/18 09:09:01;;;;;;;14.38;7.97;;;8.00;80.30;;;;;;5057888;28;20111;-67
2021/11/18 09:11:29;;;;;;;16.23;7.75;;;8.00;80.10;;;;;;5058715;28;20634;-68
2021/11/18 09:13:55;;;;;;;11.10;7.43;;;8.00;80.10;;;;;;5058285;28;20089;-67
2021/11/18 09:16:23;;;;;;;13.05;8.63;;;8.00;80.00;;;;;;5058060;28;20040;-68
2021/11/18 09:18:49;;;;;;;13.38;8.55;;;8.00;79.80;;;;;;5057803;28;20063;-67
2021/11/18 09:21:18;;;;;;;12.70;8.05;;;8.10;79.70;;;;;;5058460;28;20500;-67
2021/11/18 09:24:06;;;;;;;14.82;8.85;;;8.20;79.50;;;;;;5057333;28;20033;-67
2021/11/18 09:26:40;;;;;;;12.73;7.63;;;8.20;79.30;;;;;;5057109;28;20083;-67
2021/11/18 09:29:06;;;;;;;10.98;7.90;;;8.20;79.30;;;;;;5057661;28;20024;-68
2021/11/18 09:31:33;;;;;;;14.02;7.90;;;8.20;79.20;;;;;;5057598;28;20162;-67
2021/11/18 09:34:00;;;;;;;9.98;7.55;;;8.20;79.10;;;;;;5057881;28;20045;-68
2021/11/18 09:36:27;;;;;;;11.25;7.45;;;8.30;79.20;;;;;;5055682;28;20454;-68
2021/11/18 09:38:55;;;;;;;10.40;7.38;;;8.30;79.20;;;;;;5056768;28;20028;-67
2021/11/18 09:41:27;;;;;;;14.23;8.05;;;8.30;79.20;;;;;;5057900;28;20036;-67
2021/11/18 09:44:21;;;;;;;12.10;7.35;;;8.30;79.30;;;;;;5057128;28;20039;-67
2021/11/18 09:47:27;;;;;;;12.93;7.57;;;8.30;79.10;;;;;;5046984;28;20040;-67
2021/11/18 09:50:07;;;;;;;13.60;8.30;;;8.40;79.10;;;;;;5057649;28;20447;-68
2021/11/18 09:53:07;;;;;;;15.93;7.75;;;8.40;79.10;;;;;;5057091;28;20825;-68
2021/11/18 09:55:44;;;;;;;10.88;7.95;;;8.40;79.00;;;;;;5055064;28;20455;-67
2021/11/18 09:58:21;;;;;;;12.05;7.88;;;8.50;79.20;;;;;;5058362;28;20033;-67
2021/11/18 10:01:05;;;;;;;20.80;8.32;;;8.50;79.10;;;;;;5057651;28;20139;-68
2021/11/18 10:03:41;;;;;;;74.40;11.15;;;8.50;79.10;;;;;;5056271;28;20116;-67
2021/11/18 10:06:29;;;;;;;14.73;8.48;;;8.50;79.10;;;;;;5058895;28;20028;-68
2021/11/18 10:09:07;;;;;;;11.27;7.53;;;8.50;79.00;;;;;;5056273;28;20029;-67
2021/11/18 10:11:54;;;;;;;11.88;7.72;;;8.60;79.10;;;;;;5056694;28;20029;-67
2021/11/18 10:14:38;;;;;;;10.70;7.68;;;8.60;79.00;;;;;;5057034;28;20051;-68
2021/11/18 10:17:09;;;;;;;15.87;9.43;;;8.70;78.70;;;;;;5056787;28;20040;-68
2021/11/18 10:19:41;;;;;;;14.75;8.75;;;8.70;78.70;;;;;;5057323;28;20060;-67
2021/11/18 10:22:10;;;;;;;12.10;8.05;;;8.80;78.90;;;;;;5055872;28;20108;-67
2021/11/18 10:24:40;;;;;;;10.43;7.28;;;8.80;79.00;;;;;;5055906;28;20416;-68
2021/11/18 10:27:13;;;;;;;10.95;7.70;;;8.80;78.90;;;;;;5056014;28;20036;-68
2021/11/18 10:30:14;;;;;;;10.32;7.28;;;8.90;79.00;;;;;;5057147;28;20146;-67
2021/11/18 10:32:57;;;;;;;10.95;7.72;;;9.00;78.70;;;;;;5055602;28;20043;-67
2021/11/18 10:35:35;;;;;;;11.85;7.43;;;9.00;78.40;;;;;;5055594;28;20496;-64
2021/11/18 10:38:16;;;;;;;14.00;7.43;;;9.00;78.50;;;;;;5062357;28;20041;-67
2021/11/18 10:40:58;;;;;;;12.65;7.93;;;9.10;78.30;;;;;;5056116;28;20032;-67
2021/11/18 10:43:27;;;;;;;9.90;7.03;;;9.10;77.90;;;;;;5056646;28;20400;-68
2021/11/18 10:46:29;;;;;;;9.90;7.65;;;9.20;78.20;;;;;;5057495;28;20033;-68
2021/11/18 10:49:15;;;;;;;9.18;6.55;;;9.20;77.50;;;;;;5056766;28;20099;-68
2021/11/18 10:51:51;;;;;;;10.50;6.50;;;9.20;77.80;;;;;;5061806;28;20036;-68
2021/11/18 10:54:18;;;;;;;11.30;7.53;;;9.30;78.10;;;;;;5059851;28;20047;-67
2021/11/18 10:57:02;;;;;;;10.02;6.93;;;9.30;78.00;;;;;;5060579;28;20047;-68
2021/11/18 10:59:42;;;;;;;8.73;6.88;;;9.40;78.40;;;;;;5061266;28;20587;-66
2021/11/18 11:02:29;;;;;;;9.38;6.53;;;9.50;77.60;;;;;;5062690;28;20084;-68
2021/11/18 11:05:01;;;;;;;8.63;6.65;;;9.50;77.60;;;;;;5060478;28;20427;-67
2021/11/18 11:07:40;;;;;;;10.85;6.93;;;9.50;77.60;;;;;;5060387;28;20622;-68
2021/11/18 11:10:12;;;;;;;9.05;6.78;;;9.50;77.20;;;;;;5059703;28;20074;-68
2021/11/18 11:12:46;;;;;;;9.45;6.88;;;9.50;77.20;;;;;;5058223;28;20110;-68
2021/11/18 11:15:43;;;;;;;9.50;6.65;;;9.50;77.30;;;;;;5061230;28;20419;-68
2021/11/18 11:18:24;;;;;;;11.65;6.20;;;9.60;77.00;;;;;;5061250;28;20526;-68
2021/11/18 11:21:19;;;;;;;8.23;6.28;;;9.60;77.20;;;;;;5066016;28;20041;-67
2021/11/18 11:23:50;;;;;;;10.38;6.95;;;9.60;76.90;;;;;;5060040;28;20041;-67
2021/11/18 11:26:46;;;;;;;9.43;7.25;;;9.70;77.00;;;;;;5058976;28;20029;-67
2021/11/18 11:29:48;;;;;;;9.18;6.63;;;9.60;76.70;;;;;;5060021;28;20024;-67
2021/11/18 11:32:36;;;;;;;8.88;6.50;;;9.60;76.50;;;;;;5057383;28;20035;-67
2021/11/18 11:35:31;;;;;;;12.77;7.32;;;9.60;76.80;;;;;;5054861;28;20040;-67
2021/11/18 11:38:18;;;;;;;9.27;7.20;;;9.60;76.60;;;;;;5038283;28;20563;-68
2021/11/18 11:41:02;;;;;;;10.80;6.68;;;9.60;76.50;;;;;;5038823;28;20033;-68
2021/11/18 11:43:46;;;;;;;9.90;6.78;;;9.60;76.60;;;;;;5039649;28;20045;-68
2021/11/18 11:46:28;;;;;;;8.48;5.97;;;9.60;76.70;;;;;;5040766;28;20159;-69
2021/11/18 11:49:22;;;;;;;7.65;5.45;;;9.70;76.50;;;;;;5060134;28;20047;-67
2021/11/18 11:51:56;;;;;;;5.93;4.90;;;9.70;76.60;;;;;;5059479;28;20381;-68
2021/11/18 11:54:28;;;;;;;5.53;4.75;;;9.70;76.60;;;;;;5059822;28;20028;-68
2021/11/18 11:57:00;;;;;;;5.35;4.50;;;9.70;76.60;;;;;;5063750;28;20031;-67
2021/11/18 11:59:32;;;;;;;7.70;5.57;;;9.70;76.60;;;;;;5058863;28;20087;-68
2021/11/18 12:02:00;;;;;;;7.28;5.10;;;9.70;76.20;;;;;;5059840;28;20463;-68
2021/11/18 12:04:47;;;;;;;7.25;5.47;;;9.70;76.40;;;;;;5059374;28;20617;-68
2021/11/18 12:07:24;;;;;;;9.18;6.18;;;9.80;76.20;;;;;;5059484;28;20033;-68
2021/11/18 12:10:17;;;;;;;6.93;5.32;;;9.80;76.20;;;;;;5058760;28;20600;-68
2021/11/18 12:12:49;;;;;;;7.50;5.78;;;9.80;76.10;;;;;;5055134;28;20032;-67
2021/11/18 12:15:22;;;;;;;8.05;5.95;;;9.90;76.30;;;;;;5059823;28;20039;-68
2021/11/18 12:17:55;;;;;;;16.52;6.28;;;9.90;76.10;;;;;;5059666;28;20058;-67
2021/11/18 12:20:32;;;;;;;9.65;5.55;;;9.90;76.00;;;;;;5059618;28;20063;-68
2021/11/18 12:23:05;;;;;;;8.35;5.40;;;9.90;76.10;;;;;;5059456;28;20037;-68
2021/11/18 12:25:30;;;;;;;7.88;5.43;;;10.00;76.00;;;;;;5059743;28;20033;-68
2021/11/18 12:28:08;;;;;;;8.02;5.55;;;10.00;76.00;;;;;;5059495;28;20037;-68
2021/11/18 12:30:55;;;;;;;6.72;5.20;;;10.10;75.00;;;;;;5058863;28;20058;-67
2021/11/18 12:33:20;;;;;;;6.20;4.80;;;10.10;75.00;;;;;;5060107;28;20041;-67
2021/11/18 12:36:06;;;;;;;5.50;4.90;;;10.10;75.30;;;;;;5059925;28;20079;-68
2021/11/18 12:38:43;;;;;;;6.90;4.97;;;10.10;75.00;;;;;;5061233;28;20037;-68
2021/11/18 12:41:27;;;;;;;5.32;4.45;;;10.10;74.90;;;;;;5059813;28;20058;-68
2021/11/18 12:44:01;;;;;;;5.88;4.80;;;10.10;75.10;;;;;;5059990;28;20028;-68
2021/11/18 12:46:31;;;;;;;6.07;4.45;;;10.00;74.40;;;;;;5057756;28;20037;-68
2021/11/18 12:49:00;;;;;;;4.97;4.28;;;10.00;75.00;;;;;;5059799;28;20030;-68
2021/11/18 12:51:44;;;;;;;5.35;4.63;;;10.10;75.10;;;;;;5059049;28;20435;-68
2021/11/18 12:54:10;;;;;;;6.10;4.57;;;10.10;74.00;;;;;;5060633;28;20468;-68
2021/11/18 12:57:02;;;;;;;4.90;4.13;;;10.00;74.60;;;;;;5058594;28;20107;-68
2021/11/18 12:59:37;;;;;;;4.95;3.88;;;10.00;73.90;;;;;;5059060;28;20083;-68
2021/11/18 13:02:06;;;;;;;4.35;3.63;;;10.00;74.10;;;;;;5058738;28;20051;-68
2021/11/18 13:04:48;;;;;;;9.40;4.30;;;10.00;74.60;;;;;;5057760;28;20064;-68
2021/11/18 13:07:33;;;;;;;5.50;4.03;;;10.00;74.60;;;;;;5059365;28;20053;-68
2021/11/18 13:10:04;;;;;;;5.43;3.90;;;10.00;74.40;;;;;;5057888;28;20056;-67